sensor_id;sensor_type;location;lat;lon;timestamp;pressure;altitude;pressure_sealevel;temperature;humidity
75933;BME280;64803;52.356;5.310;2023-05-15T00:00:55;101893.44;;;11.17;100.00
75933;BME280;64803;52.356;5.310;2023-05-15T00:03:21;101910.69;;;11.32;100.00
75933;BME280;64803;52.356;5.310;2023-05-15T00:05:47;101917.75;;;11.33;100.00
75933;BME280;64803;52.356;5.310;2023-05-15T00:08:14;101903.63;;;11.31;100.00
75933;BME280;64803;52.356;5.310;2023-05-15T00:10:40;101892.88;;;11.31;100.00
75933;BME280;64803;52.356;5.310;2023-05-15T00:13:06;101904.31;;;11.33;100.00
75933;BME280;64803;52.356;5.310;2023-05-15T00:15:32;101892.50;;;11.26;100.00
75933;BME280;64803;52.356;5.310;2023-05-15T00:17:58;101902.56;;;11.24;100.00
75933;BME280;64803;52.356;5.310;2023-05-15T00:20:24;101897.63;;;11.19;100.00
75933;BME280;64803;52.356;5.310;2023-05-15T00:22:50;101892.78;;;11.23;100.00
75933;BME280;64803;52.356;5.310;2023-05-15T00:25:16;101878.38;;;11.24;100.00
75933;BME280;64803;52.356;5.310;2023-05-15T00:27:44;101864.56;;;11.19;100.00
75933;BME280;64803;52.356;5.310;2023-05-15T00:30:12;101877.44;;;11.33;100.00
75933;BME280;64803;52.356;5.310;2023-05-15T00:32:38;101884.47;;;11.34;100.00
75933;BME280;64803;52.356;5.310;2023-05-15T00:35:05;101891.00;;;11.31;100.00
75933;BME280;64803;52.356;5.310;2023-05-15T00:37:31;101883.63;;;11.33;100.00
75933;BME280;64803;52.356;5.310;2023-05-15T00:39:57;101876.66;;;11.23;100.00
75933;BME280;64803;52.356;5.310;2023-05-15T00:42:24;101877.03;;;11.28;100.00
75933;BME280;64803;52.356;5.310;2023-05-15T00:44:51;101877.19;;;11.26;100.00
75933;BME280;64803;52.356;5.310;2023-05-15T00:47:19;101874.34;;;11.28;100.00
75933;BME280;64803;52.356;5.310;2023-05-15T00:49:46;101872.13;;;11.23;100.00
75933;BME280;64803;52.356;5.310;2023-05-15T00:52:14;101874.13;;;11.21;100.00
75933;BME280;64803;52.356;5.310;2023-05-15T00:54:40;101863.88;;;11.17;100.00
75933;BME280;64803;52.356;5.310;2023-05-15T00:57:07;101863.88;;;11.17;100.00
75933;BME280;64803;52.356;5.310;2023-05-15T00:59:35;101865.84;;;11.15;100.00
75933;BME280;64803;52.356;5.310;2023-05-15T01:02:03;101849.69;;;11.07;100.00
75933;BME280;64803;52.356;5.310;2023-05-15T01:04:30;101856.91;;;11.06;100.00
75933;BME280;64803;52.356;5.310;2023-05-15T01:06:56;101853.88;;;11.09;100.00
75933;BME280;64803;52.356;5.310;2023-05-15T01:09:23;101850.22;;;11.10;100.00
75933;BME280;64803;52.356;5.310;2023-05-15T01:11:53;101863.94;;;11.07;100.00
75933;BME280;64803;52.356;5.310;2023-05-15T01:14:19;101854.53;;;11.03;100.00
75933;BME280;64803;52.356;5.310;2023-05-15T01:16:45;101828.66;;;10.85;100.00
75933;BME280;64803;52.356;5.310;2023-05-15T01:19:11;101849.00;;;11.05;100.00
75933;BME280;64803;52.356;5.310;2023-05-15T01:27:50;101856.19;;;11.04;100.00
75933;BME280;64803;52.356;5.310;2023-05-15T01:30:21;101857.34;;;11.02;100.00
75933;BME280;64803;52.356;5.310;2023-05-15T01:33:18;101846.16;;;11.06;100.00
75933;BME280;64803;52.356;5.310;2023-05-15T01:36:04;101847.91;;;11.15;100.00
75933;BME280;64803;52.356;5.310;2023-05-15T01:38:51;101845.56;;;11.20;100.00
75933;BME280;64803;52.356;5.310;2023-05-15T01:44:04;101848.84;;;11.32;100.00
75933;BME280;64803;52.356;5.310;2023-05-15T01:46:39;101852.22;;;11.34;100.00
75933;BME280;64803;52.356;5.310;2023-05-15T01:49:09;101851.69;;;11.30;100.00
75933;BME280;64803;52.356;5.310;2023-05-15T01:51:38;101862.53;;;11.21;100.00
75933;BME280;64803;52.356;5.310;2023-05-15T01:54:09;101860.84;;;11.20;100.00
75933;BME280;64803;52.356;5.310;2023-05-15T01:56:36;101829.81;;;11.00;100.00
75933;BME280;64803;52.356;5.310;2023-05-15T01:59:03;101861.41;;;11.06;100.00
75933;BME280;64803;52.356;5.310;2023-05-15T02:01:31;101861.03;;;11.01;100.00
75933;BME280;64803;52.356;5.310;2023-05-15T02:03:59;101855.13;;;10.97;100.00
75933;BME280;64803;52.356;5.310;2023-05-15T02:06:26;101873.03;;;10.89;100.00
75933;BME280;64803;52.356;5.310;2023-05-15T02:08:54;101870.69;;;10.86;100.00
75933;BME280;64803;52.356;5.310;2023-05-15T02:11:21;101866.00;;;10.88;100.00
75933;BME280;64803;52.356;5.310;2023-05-15T02:13:47;101868.59;;;10.80;100.00
75933;BME280;64803;52.356;5.310;2023-05-15T02:16:14;101824.25;;;10.58;100.00
75933;BME280;64803;52.356;5.310;2023-05-15T02:18:40;101869.81;;;10.85;100.00
75933;BME280;64803;52.356;5.310;2023-05-15T02:21:06;101870.34;;;10.89;100.00
75933;BME280;64803;52.356;5.310;2023-05-15T02:23:34;101866.00;;;10.88;100.00
75933;BME280;64803;52.356;5.310;2023-05-15T02:28:57;101868.28;;;10.83;100.00
75933;BME280;64803;52.356;5.310;2023-05-15T02:31:32;101861.81;;;10.76;100.00
75933;BME280;64803;52.356;5.310;2023-05-15T02:34:14;101859.13;;;10.76;100.00
75933;BME280;64803;52.356;5.310;2023-05-15T02:36:43;101859.47;;;10.73;100.00
75933;BME280;64803;52.356;5.310;2023-05-15T02:39:12;101862.16;;;10.73;100.00
75933;BME280;64803;52.356;5.310;2023-05-15T02:41:40;101858.16;;;10.77;100.00
75933;BME280;64803;52.356;5.310;2023-05-15T02:44:08;101835.28;;;10.73;100.00
75933;BME280;64803;52.356;5.310;2023-05-15T02:46:36;101854.00;;;10.82;100.00
75933;BME280;64803;52.356;5.310;2023-05-15T02:49:03;101845.09;;;10.82;100.00
75933;BME280;64803;52.356;5.310;2023-05-15T02:51:29;101843.72;;;10.78;100.00
75933;BME280;64803;52.356;5.310;2023-05-15T02:53:59;101846.66;;;10.84;100.00
75933;BME280;64803;52.356;5.310;2023-05-15T02:56:26;101853.22;;;10.90;100.00
75933;BME280;64803;52.356;5.310;2023-05-15T02:58:52;101857.28;;;10.94;100.00
75933;BME280;64803;52.356;5.310;2023-05-15T03:01:18;101850.63;;;10.98;100.00
75933;BME280;64803;52.356;5.310;2023-05-15T03:03:45;101843.25;;;11.00;100.00
75933;BME280;64803;52.356;5.310;2023-05-15T03:06:11;101838.00;;;10.98;100.00
75933;BME280;64803;52.356;5.310;2023-05-15T03:08:37;101852.59;;;10.96;100.00
75933;BME280;64803;52.356;5.310;2023-05-15T03:11:03;101846.06;;;10.98;100.00
75933;BME280;64803;52.356;5.310;2023-05-15T03:13:29;101838.16;;;10.97;100.00
75933;BME280;64803;52.356;5.310;2023-05-15T03:15:55;101846.53;;;10.94;100.00
75933;BME280;64803;52.356;5.310;2023-05-15T03:18:21;101841.72;;;10.80;100.00
75933;BME280;64803;52.356;5.310;2023-05-15T03:20:48;101837.38;;;10.79;100.00
75933;BME280;64803;52.356;5.310;2023-05-15T03:23:14;101795.38;;;10.60;100.00
75933;BME280;64803;52.356;5.310;2023-05-15T03:25:40;101827.75;;;10.76;100.00
75933;BME280;64803;52.356;5.310;2023-05-15T03:28:06;101827.16;;;10.82;100.00
75933;BME280;64803;52.356;5.310;2023-05-15T03:30:32;101827.59;;;10.78;100.00
75933;BME280;64803;52.356;5.310;2023-05-15T03:32:58;101837.19;;;10.80;100.00
75933;BME280;64803;52.356;5.310;2023-05-15T03:35:25;101829.47;;;10.60;100.00
75933;BME280;64803;52.356;5.310;2023-05-15T03:37:51;101828.41;;;10.53;100.00
75933;BME280;64803;52.356;5.310;2023-05-15T03:40:17;101835.00;;;10.41;100.00
75933;BME280;64803;52.356;5.310;2023-05-15T03:42:43;101842.25;;;10.31;100.00
75933;BME280;64803;52.356;5.310;2023-05-15T03:45:09;101846.16;;;10.18;100.00
75933;BME280;64803;52.356;5.310;2023-05-15T03:47:35;101845.06;;;10.11;100.00
75933;BME280;64803;52.356;5.310;2023-05-15T03:50:01;101850.75;;;10.08;100.00
75933;BME280;64803;52.356;5.310;2023-05-15T03:52:32;101838.19;;;10.09;100.00
75933;BME280;64803;52.356;5.310;2023-05-15T03:54:59;101845.06;;;10.11;100.00
75933;BME280;64803;52.356;5.310;2023-05-15T03:57:25;101844.47;;;10.17;100.00
75933;BME280;64803;52.356;5.310;2023-05-15T03:59:51;101835.13;;;10.22;100.00
75933;BME280;64803;52.356;5.310;2023-05-15T04:02:17;101837.66;;;10.23;100.00
75933;BME280;64803;52.356;5.310;2023-05-15T04:04:43;101840.34;;;10.23;100.00
75933;BME280;64803;52.356;5.310;2023-05-15T04:07:10;101844.88;;;10.23;100.00
75933;BME280;64803;52.356;5.310;2023-05-15T04:09:36;101839.34;;;10.24;100.00
75933;BME280;64803;52.356;5.310;2023-05-15T04:12:02;101849.22;;;10.23;100.00
75933;BME280;64803;52.356;5.310;2023-05-15T04:14:28;101844.47;;;10.17;100.00
75933;BME280;64803;52.356;5.310;2023-05-15T04:16:54;101856.50;;;10.13;100.00
75933;BME280;64803;52.356;5.310;2023-05-15T04:19:20;101855.53;;;10.14;100.00
75933;BME280;64803;52.356;5.310;2023-05-15T04:21:46;101860.28;;;10.20;100.00
75933;BME280;64803;52.356;5.310;2023-05-15T04:24:12;101865.66;;;10.20;100.00
75933;BME280;64803;52.356;5.310;2023-05-15T04:26:38;101869.88;;;10.23;100.00
75933;BME280;64803;52.356;5.310;2023-05-15T04:29:04;101868.16;;;10.22;100.00
75933;BME280;64803;52.356;5.310;2023-05-15T04:31:30;101876.38;;;10.20;100.00
75933;BME280;64803;52.356;5.310;2023-05-15T04:33:56;101872.41;;;10.25;100.00
75933;BME280;64803;52.356;5.310;2023-05-15T04:36:23;101841.00;;;10.07;100.00
75933;BME280;64803;52.356;5.310;2023-05-15T04:38:48;101880.53;;;10.33;100.00
75933;BME280;64803;52.356;5.310;2023-05-15T04:41:15;101870.09;;;10.30;100.00
75933;BME280;64803;52.356;5.310;2023-05-15T04:43:41;101870.66;;;10.33;100.00
75933;BME280;64803;52.356;5.310;2023-05-15T04:46:07;101876.25;;;10.40;100.00
75933;BME280;64803;52.356;5.310;2023-05-15T04:48:32;101867.81;;;10.35;100.00
75933;BME280;64803;52.356;5.310;2023-05-15T04:50:58;101847.00;;;10.19;100.00
75933;BME280;64803;52.356;5.310;2023-05-15T04:53:24;101861.53;;;10.44;100.00
75933;BME280;64803;52.356;5.310;2023-05-15T04:55:50;101867.13;;;10.50;100.00
75933;BME280;64803;52.356;5.310;2023-05-15T04:58:16;101855.41;;;10.51;100.00
75933;BME280;64803;52.356;5.310;2023-05-15T05:00:42;101858.63;;;10.55;100.00
75933;BME280;64803;52.356;5.310;2023-05-15T05:03:08;101856.22;;;10.52;100.00
75933;BME280;64803;52.356;5.310;2023-05-15T05:05:34;101856.50;;;10.58;100.00
75933;BME280;64803;52.356;5.310;2023-05-15T05:08:00;101854.41;;;10.70;100.00
75933;BME280;64803;52.356;5.310;2023-05-15T05:10:26;101854.56;;;10.86;100.00
75933;BME280;64803;52.356;5.310;2023-05-15T05:12:53;101853.16;;;10.82;100.00
75933;BME280;64803;52.356;5.310;2023-05-15T05:15:19;101845.97;;;10.82;100.00
75933;BME280;64803;52.356;5.310;2023-05-15T05:17:45;101848.16;;;10.87;100.00
75933;BME280;64803;52.356;5.310;2023-05-15T05:20:11;101850.38;;;10.91;100.00
75933;BME280;64803;52.356;5.310;2023-05-15T05:22:38;101827.69;;;10.86;100.00
75933;BME280;64803;52.356;5.310;2023-05-15T05:25:05;101861.91;;;11.01;100.00
75933;BME280;64803;52.356;5.310;2023-05-15T05:27:31;101858.97;;;10.95;100.00
75933;BME280;64803;52.356;5.310;2023-05-15T05:29:57;101861.66;;;10.95;100.00
75933;BME280;64803;52.356;5.310;2023-05-15T05:32:23;101853.53;;;10.87;100.00
75933;BME280;64803;52.356;5.310;2023-05-15T05:34:49;101857.44;;;10.92;100.00
75933;BME280;64803;52.356;5.310;2023-05-15T05:37:15;101858.16;;;10.94;100.00
75933;BME280;64803;52.356;5.310;2023-05-15T05:39:41;101858.19;;;11.02;100.00
75933;BME280;64803;52.356;5.310;2023-05-15T05:42:07;101852.09;;;11.18;100.00
75933;BME280;64803;52.356;5.310;2023-05-15T05:44:33;101853.97;;;11.43;100.00
75933;BME280;64803;52.356;5.310;2023-05-15T05:46:59;101856.41;;;11.62;100.00
75933;BME280;64803;52.356;5.310;2023-05-15T05:49:25;101855.56;;;11.62;100.00
75933;BME280;64803;52.356;5.310;2023-05-15T05:51:51;101855.50;;;11.71;100.00
75933;BME280;64803;52.356;5.310;2023-05-15T05:54:17;101852.13;;;11.69;100.00
75933;BME280;64803;52.356;5.310;2023-05-15T05:56:43;101849.09;;;11.47;100.00
75933;BME280;64803;52.356;5.310;2023-05-15T05:59:09;101841.88;;;11.47;100.00
75933;BME280;64803;52.356;5.310;2023-05-15T06:01:35;101840.22;;;11.54;100.00
75933;BME280;64803;52.356;5.310;2023-05-15T06:04:01;101854.13;;;11.67;100.00
75933;BME280;64803;52.356;5.310;2023-05-15T06:06:27;101859.53;;;11.50;100.00
75933;BME280;64803;52.356;5.310;2023-05-15T06:08:53;101846.59;;;11.53;100.00
75933;BME280;64803;52.356;5.310;2023-05-15T06:11:19;101859.69;;;11.48;100.00
75933;BME280;64803;52.356;5.310;2023-05-15T06:13:46;101858.38;;;11.52;100.00
75933;BME280;64803;52.356;5.310;2023-05-15T06:16:12;101852.13;;;11.44;100.00
75933;BME280;64803;52.356;5.310;2023-05-15T06:18:38;101855.03;;;11.58;100.00
75933;BME280;64803;52.356;5.310;2023-05-15T06:21:04;101855.25;;;11.65;100.00
75933;BME280;64803;52.356;5.310;2023-05-15T06:23:30;101852.44;;;11.66;100.00
75933;BME280;64803;52.356;5.310;2023-05-15T06:25:56;101851.03;;;11.62;100.00
75933;BME280;64803;52.356;5.310;2023-05-15T06:28:22;101845.56;;;11.46;100.00
75933;BME280;64803;52.356;5.310;2023-05-15T06:30:48;101847.81;;;11.59;100.00
75933;BME280;64803;52.356;5.310;2023-05-15T06:33:14;101843.66;;;11.38;100.00
75933;BME280;64803;52.356;5.310;2023-05-15T06:35:40;101833.75;;;11.39;100.00
75933;BME280;64803;52.356;5.310;2023-05-15T06:38:07;101855.25;;;11.39;100.00
75933;BME280;64803;52.356;5.310;2023-05-15T06:40:33;101850.38;;;11.34;100.00
75933;BME280;64803;52.356;5.310;2023-05-15T06:42:59;101854.94;;;11.42;100.00
75933;BME280;64803;52.356;5.310;2023-05-15T06:45:25;101845.75;;;11.53;100.00
75933;BME280;64803;52.356;5.310;2023-05-15T06:47:51;101853.53;;;11.89;100.00
75933;BME280;64803;52.356;5.310;2023-05-15T06:50:17;101841.91;;;11.55;100.00
75933;BME280;64803;52.356;5.310;2023-05-15T06:52:43;101848.91;;;11.66;100.00
75933;BME280;64803;52.356;5.310;2023-05-15T06:55:09;101837.84;;;11.51;100.00
75933;BME280;64803;52.356;5.310;2023-05-15T06:57:35;101840.44;;;11.94;100.00
75933;BME280;64803;52.356;5.310;2023-05-15T07:00:01;101844.41;;;11.82;100.00
75933;BME280;64803;52.356;5.310;2023-05-15T07:02:27;101843.25;;;11.77;100.00
75933;BME280;64803;52.356;5.310;2023-05-15T07:04:53;101845.44;;;11.81;100.00
75933;BME280;64803;52.356;5.310;2023-05-15T07:07:19;101848.38;;;11.96;100.00
75933;BME280;64803;52.356;5.310;2023-05-15T07:09:45;101852.63;;;12.14;100.00
75933;BME280;64803;52.356;5.310;2023-05-15T07:12:13;101848.97;;;12.31;100.00
75933;BME280;64803;52.356;5.310;2023-05-15T07:14:40;101846.31;;;12.39;100.00
75933;BME280;64803;52.356;5.310;2023-05-15T07:17:06;101844.09;;;12.43;100.00
75933;BME280;64803;52.356;5.310;2023-05-15T07:19:32;101852.88;;;12.45;100.00
75933;BME280;64803;52.356;5.310;2023-05-15T07:21:58;101847.84;;;12.58;100.00
75933;BME280;64803;52.356;5.310;2023-05-15T07:24:24;101844.97;;;12.68;100.00
75933;BME280;64803;52.356;5.310;2023-05-15T07:26:50;101840.59;;;12.91;100.00
75933;BME280;64803;52.356;5.310;2023-05-15T07:29:16;101834.22;;;13.16;100.00
75933;BME280;64803;52.356;5.310;2023-05-15T07:31:42;101834.03;;;13.09;100.00
75933;BME280;64803;52.356;5.310;2023-05-15T07:34:10;101841.56;;;13.46;100.00
75933;BME280;64803;52.356;5.310;2023-05-15T07:36:36;101838.25;;;13.28;100.00
75933;BME280;64803;52.356;5.310;2023-05-15T07:39:02;101824.19;;;13.48;100.00
75933;BME280;64803;52.356;5.310;2023-05-15T07:41:28;101839.53;;;13.95;100.00
75933;BME280;64803;52.356;5.310;2023-05-15T07:43:55;101845.19;;;14.16;100.00
75933;BME280;64803;52.356;5.310;2023-05-15T07:46:21;101845.25;;;14.38;100.00
75933;BME280;64803;52.356;5.310;2023-05-15T07:48:47;101848.31;;;14.35;100.00
75933;BME280;64803;52.356;5.310;2023-05-15T07:51:13;101846.91;;;13.70;100.00
75933;BME280;64803;52.356;5.310;2023-05-15T07:53:39;101846.16;;;13.45;100.00
75933;BME280;64803;52.356;5.310;2023-05-15T07:56:05;101841.94;;;13.27;100.00
75933;BME280;64803;52.356;5.310;2023-05-15T07:58:31;101846.50;;;13.34;100.00
75933;BME280;64803;52.356;5.310;2023-05-15T08:01:00;101855.75;;;13.48;100.00
75933;BME280;64803;52.356;5.310;2023-05-15T08:03:26;101851.84;;;13.58;100.00
75933;BME280;64803;52.356;5.310;2023-05-15T08:05:52;101850.69;;;13.45;100.00
75933;BME280;64803;52.356;5.310;2023-05-15T08:08:18;101852.66;;;13.67;100.00
75933;BME280;64803;52.356;5.310;2023-05-15T08:10:44;101849.75;;;14.15;100.00
75933;BME280;64803;52.356;5.310;2023-05-15T08:13:10;101856.66;;;14.26;100.00
75933;BME280;64803;52.356;5.310;2023-05-15T08:15:36;101857.97;;;13.91;100.00
75933;BME280;64803;52.356;5.310;2023-05-15T08:18:07;101858.66;;;13.85;100.00
75933;BME280;64803;52.356;5.310;2023-05-15T08:20:33;101853.47;;;13.76;100.00
75933;BME280;64803;52.356;5.310;2023-05-15T08:22:59;101854.25;;;13.92;100.00
75933;BME280;64803;52.356;5.310;2023-05-15T08:25:25;101844.78;;;13.96;100.00
75933;BME280;64803;52.356;5.310;2023-05-15T08:27:51;101856.22;;;14.06;100.00
75933;BME280;64803;52.356;5.310;2023-05-15T08:30:17;101851.38;;;14.32;100.00
75933;BME280;64803;52.356;5.310;2023-05-15T08:32:43;101856.31;;;14.51;100.00
75933;BME280;64803;52.356;5.310;2023-05-15T08:35:10;101849.34;;;14.34;100.00
75933;BME280;64803;52.356;5.310;2023-05-15T08:37:36;101854.31;;;14.45;100.00
75933;BME280;64803;52.356;5.310;2023-05-15T08:40:03;101856.34;;;14.13;100.00
75933;BME280;64803;52.356;5.310;2023-05-15T08:42:46;101853.22;;;13.93;100.00
75933;BME280;64803;52.356;5.310;2023-05-15T08:45:13;101853.63;;;13.74;100.00
75933;BME280;64803;52.356;5.310;2023-05-15T08:47:40;101854.84;;;13.72;100.00
75933;BME280;64803;52.356;5.310;2023-05-15T08:50:13;101845.78;;;13.48;100.00
75933;BME280;64803;52.356;5.310;2023-05-15T08:52:44;101850.31;;;13.64;100.00
75933;BME280;64803;52.356;5.310;2023-05-15T08:55:15;101853.69;;;13.66;100.00
75933;BME280;64803;52.356;5.310;2023-05-15T08:57:41;101857.16;;;13.83;100.00
75933;BME280;64803;52.356;5.310;2023-05-15T09:00:09;101861.50;;;14.00;100.00
75933;BME280;64803;52.356;5.310;2023-05-15T09:02:40;101859.22;;;14.11;100.00
75933;BME280;64803;52.356;5.310;2023-05-15T09:05:07;101846.50;;;13.89;100.00
75933;BME280;64803;52.356;5.310;2023-05-15T09:07:35;101856.28;;;13.90;100.00
75933;BME280;64803;52.356;5.310;2023-05-15T09:10:03;101853.53;;;13.98;100.00
75933;BME280;64803;52.356;5.310;2023-05-15T09:12:32;101862.72;;;13.89;100.00
75933;BME280;64803;52.356;5.310;2023-05-15T09:15:18;101865.47;;;13.73;100.00
75933;BME280;64803;52.356;5.310;2023-05-15T09:17:47;101865.50;;;13.57;100.00
75933;BME280;64803;52.356;5.310;2023-05-15T09:20:31;101867.88;;;13.52;100.00
75933;BME280;64803;52.356;5.310;2023-05-15T09:22:59;101875.81;;;13.37;100.00
75933;BME280;64803;52.356;5.310;2023-05-15T09:28:02;101872.81;;;13.16;100.00
75933;BME280;64803;52.356;5.310;2023-05-15T09:30:29;101878.00;;;12.94;100.00
75933;BME280;64803;52.356;5.310;2023-05-15T09:32:59;101871.47;;;13.04;100.00
75933;BME280;64803;52.356;5.310;2023-05-15T09:35:30;101869.97;;;13.18;100.00
75933;BME280;64803;52.356;5.310;2023-05-15T09:37:58;101856.13;;;13.29;100.00
75933;BME280;64803;52.356;5.310;2023-05-15T09:40:28;101865.53;;;13.41;100.00
75933;BME280;64803;52.356;5.310;2023-05-15T09:42:55;101856.44;;;13.42;100.00
75933;BME280;64803;52.356;5.310;2023-05-15T09:45:23;101859.31;;;13.40;100.00
75933;BME280;64803;52.356;5.310;2023-05-15T09:47:55;101861.50;;;13.37;100.00
75933;BME280;64803;52.356;5.310;2023-05-15T09:50:24;101863.50;;;13.43;100.00
75933;BME280;64803;52.356;5.310;2023-05-15T09:52:50;101859.47;;;13.39;100.00
75933;BME280;64803;52.356;5.310;2023-05-15T09:55:18;101859.13;;;13.34;100.00
75933;BME280;64803;52.356;5.310;2023-05-15T09:58:04;101869.22;;;13.48;100.00
75933;BME280;64803;52.356;5.310;2023-05-15T10:00:31;101868.91;;;13.43;100.00
75933;BME280;64803;52.356;5.310;2023-05-15T10:03:00;101861.53;;;13.21;100.00
75933;BME280;64803;52.356;5.310;2023-05-15T10:05:27;101864.75;;;13.08;100.00
75933;BME280;64803;52.356;5.310;2023-05-15T10:07:54;101867.97;;;13.04;100.00
75933;BME280;64803;52.356;5.310;2023-05-15T10:10:21;101868.09;;;13.02;100.00
75933;BME280;64803;52.356;5.310;2023-05-15T10:12:49;101867.25;;;13.10;100.00
75933;BME280;64803;52.356;5.310;2023-05-15T10:15:20;101861.69;;;13.19;100.00
75933;BME280;64803;52.356;5.310;2023-05-15T10:17:48;101861.53;;;13.21;100.00
75933;BME280;64803;52.356;5.310;2023-05-15T10:20:19;101864.91;;;13.07;100.00
75933;BME280;64803;52.356;5.310;2023-05-15T10:22:48;101868.59;;;13.06;100.00
75933;BME280;64803;52.356;5.310;2023-05-15T10:27:59;101853.75;;;12.94;100.00
75933;BME280;64803;52.356;5.310;2023-05-15T10:30:27;101880.75;;;13.02;100.00
75933;BME280;64803;52.356;5.310;2023-05-15T10:32:54;101869.59;;;12.97;100.00
75933;BME280;64803;52.356;5.310;2023-05-15T10:35:20;101877.50;;;12.90;100.00
75933;BME280;64803;52.356;5.310;2023-05-15T10:37:47;101881.06;;;12.91;100.00
75933;BME280;64803;52.356;5.310;2023-05-15T10:40:15;101876.50;;;12.99;100.00
75933;BME280;64803;52.356;5.310;2023-05-15T10:42:44;101874.31;;;12.87;100.00
75933;BME280;64803;52.356;5.310;2023-05-15T10:45:11;101874.00;;;12.90;100.00
75933;BME280;64803;52.356;5.310;2023-05-15T10:47:38;101864.88;;;12.91;100.00
75933;BME280;64803;52.356;5.310;2023-05-15T10:50:05;101878.00;;;12.94;100.00
75933;BME280;64803;52.356;5.310;2023-05-15T10:52:32;101845.31;;;12.73;100.00
75933;BME280;64803;52.356;5.310;2023-05-15T10:54:59;101869.91;;;12.94;100.00
75933;BME280;64803;52.356;5.310;2023-05-15T10:57:27;101868.44;;;13.15;100.00
75933;BME280;64803;52.356;5.310;2023-05-15T10:59:55;101867.59;;;13.23;100.00
75933;BME280;64803;52.356;5.310;2023-05-15T11:02:23;101865.59;;;13.25;100.00
75933;BME280;64803;52.356;5.310;2023-05-15T11:04:57;101845.00;;;13.00;100.00
75933;BME280;64803;52.356;5.310;2023-05-15T11:07:24;101854.63;;;13.10;100.00
75933;BME280;64803;52.356;5.310;2023-05-15T11:09:51;101865.25;;;13.04;100.00
75933;BME280;64803;52.356;5.310;2023-05-15T11:12:18;101861.53;;;13.13;100.00
75933;BME280;64803;52.356;5.310;2023-05-15T11:17:17;101863.19;;;13.22;100.00
75933;BME280;64803;52.356;5.310;2023-05-15T11:22:32;101863.56;;;13.11;100.00
75933;BME280;64803;52.356;5.310;2023-05-15T11:25:08;101872.31;;;13.13;100.00
75933;BME280;64803;52.356;5.310;2023-05-15T11:27:39;101864.03;;;13.30;100.00
75933;BME280;64803;52.356;5.310;2023-05-15T11:38:18;101852.59;;;13.20;100.00
75933;BME280;64803;52.356;5.310;2023-05-15T11:45:56;101859.28;;;13.48;100.00
75933;BME280;64803;52.356;5.310;2023-05-15T11:48:33;101863.00;;;13.47;100.00
75933;BME280;64803;52.356;5.310;2023-05-15T11:51:00;101854.03;;;13.63;100.00
75933;BME280;64803;52.356;5.310;2023-05-15T11:53:28;101859.56;;;13.70;100.00
75933;BME280;64803;52.356;5.310;2023-05-15T11:55:54;101851.59;;;13.76;100.00
75933;BME280;64803;52.356;5.310;2023-05-15T11:58:23;101808.78;;;13.65;100.00
75933;BME280;64803;52.356;5.310;2023-05-15T12:00:50;101819.84;;;13.86;100.00
75933;BME280;64803;52.356;5.310;2023-05-15T12:03:19;101841.47;;;14.17;100.00
75933;BME280;64803;52.356;5.310;2023-05-15T12:05:45;101830.47;;;14.26;100.00
75933;BME280;64803;52.356;5.310;2023-05-15T12:08:12;101825.72;;;14.28;100.00
75933;BME280;64803;52.356;5.310;2023-05-15T12:10:40;101842.75;;;14.59;100.00
75933;BME280;64803;52.356;5.310;2023-05-15T12:13:07;101847.25;;;14.44;100.00
75933;BME280;64803;52.356;5.310;2023-05-15T12:15:36;101846.81;;;14.33;100.00
75933;BME280;64803;52.356;5.310;2023-05-15T12:18:02;101844.28;;;14.31;100.00
75933;BME280;64803;52.356;5.310;2023-05-15T12:20:28;101848.31;;;14.35;100.00
75933;BME280;64803;52.356;5.310;2023-05-15T12:22:54;101846.69;;;14.26;100.00
75933;BME280;64803;52.356;5.310;2023-05-15T12:25:23;101846.47;;;14.36;100.00
75933;BME280;64803;52.356;5.310;2023-05-15T12:27:49;101848.03;;;14.53;100.00
75933;BME280;64803;52.356;5.310;2023-05-15T12:30:16;101846.72;;;14.72;100.00
75933;BME280;64803;52.356;5.310;2023-05-15T12:32:43;101840.50;;;14.86;100.00
75933;BME280;64803;52.356;5.310;2023-05-15T12:35:09;101837.81;;;14.86;100.00
75933;BME280;64803;52.356;5.310;2023-05-15T12:37:37;101838.56;;;14.94;100.00
75933;BME280;64803;52.356;5.310;2023-05-15T12:40:05;101849.34;;;15.02;100.00
75933;BME280;64803;52.356;5.310;2023-05-15T12:42:51;101843.88;;;14.88;100.00
75933;BME280;64803;52.356;5.310;2023-05-15T12:45:21;101853.06;;;14.79;100.00
75933;BME280;64803;52.356;5.310;2023-05-15T12:47:49;101840.81;;;14.68;100.00
75933;BME280;64803;52.356;5.310;2023-05-15T12:50:16;101857.19;;;14.75;100.00
75933;BME280;64803;52.356;5.310;2023-05-15T12:55:26;101851.50;;;14.84;100.00
75933;BME280;64803;52.356;5.310;2023-05-15T12:57:55;101842.53;;;14.69;100.00
75933;BME280;64803;52.356;5.310;2023-05-15T13:00:22;101840.34;;;14.64;100.00
75933;BME280;64803;52.356;5.310;2023-05-15T13:02:53;101847.66;;;14.79;100.00
75933;BME280;64803;52.356;5.310;2023-05-15T13:05:21;101851.28;;;14.71;100.00
75933;BME280;64803;52.356;5.310;2023-05-15T13:07:48;101839.84;;;14.84;100.00
75933;BME280;64803;52.356;5.310;2023-05-15T13:10:14;101849.88;;;14.98;100.00
75933;BME280;64803;52.356;5.310;2023-05-15T13:12:45;101832.34;;;14.94;100.00
75933;BME280;64803;52.356;5.310;2023-05-15T13:20:37;101840.00;;;14.68;100.00
75933;BME280;64803;52.356;5.310;2023-05-15T13:23:08;101849.66;;;14.85;100.00
75933;BME280;64803;52.356;5.310;2023-05-15T13:25:34;101837.91;;;15.15;100.00